createdAt,value
2019-05-18T00:00:45.630Z,99
2019-05-18T00:01:59.771Z,99.1
2019-05-18T00:03:13.931Z,99.2
2019-05-18T00:04:28.141Z,99.1
2019-05-18T00:05:42.439Z,99.5
2019-05-18T00:06:56.553Z,99.7
2019-05-18T00:08:10.758Z,99.6
2019-05-18T00:09:24.989Z,99.1
2019-05-18T00:10:39.181Z,99.3
2019-05-18T00:11:53.380Z,99.2
2019-05-18T00:13:07.619Z,99.8
2019-05-18T00:14:21.794Z,99.6
2019-05-18T00:15:36.018Z,100
2019-05-18T00:16:50.213Z,100
2019-05-18T00:18:04.413Z,100
2019-05-18T00:19:18.769Z,100
2019-05-18T00:20:32.817Z,100
2019-05-18T00:21:47.042Z,99.8
2019-05-18T00:23:01.220Z,100
2019-05-18T00:24:15.411Z,100
2019-05-18T00:25:37.317Z,100
2019-05-18T00:26:43.803Z,100
2019-05-18T00:27:58.017Z,100
2019-05-18T00:29:12.225Z,100
2019-05-18T00:30:26.418Z,100
2019-05-18T00:31:40.623Z,100
2019-05-18T00:32:54.835Z,100
2019-05-18T00:34:09.046Z,100
2019-05-18T00:35:23.303Z,100
2019-05-18T00:36:37.755Z,100
2019-05-18T00:37:51.746Z,100
2019-05-18T00:39:05.835Z,100
2019-05-18T00:40:20.172Z,100
2019-05-18T00:41:34.320Z,100
2019-05-18T00:42:48.435Z,100
2019-05-18T00:44:02.626Z,100
2019-05-18T00:45:16.841Z,100
2019-05-18T00:46:31.031Z,100
2019-05-18T00:47:45.246Z,100
2019-05-18T00:48:59.429Z,100
2019-05-18T00:50:13.737Z,100
2019-05-18T00:51:27.838Z,100
2019-05-18T00:52:42.154Z,100
2019-05-18T00:53:56.334Z,100
2019-05-18T00:55:10.436Z,100
2019-05-18T00:56:24.620Z,100
2019-05-18T00:57:38.889Z,100
2019-05-18T00:58:53.014Z,100
2019-05-18T01:00:07.242Z,100
2019-05-18T01:01:21.526Z,100
2019-05-18T01:02:35.640Z,100
2019-05-18T01:03:49.833Z,100
2019-05-18T01:05:04.041Z,100
2019-05-18T01:06:18.327Z,100
2019-05-18T01:07:32.588Z,100
2019-05-18T01:08:46.661Z,100
2019-05-18T01:10:00.868Z,100
2019-05-18T01:11:15.073Z,100
2019-05-18T01:12:29.396Z,100
2019-05-18T01:13:43.515Z,100
2019-05-18T01:14:57.813Z,100
2019-05-18T01:16:11.995Z,100
2019-05-18T01:17:26.127Z,100
2019-05-18T01:18:40.548Z,100
2019-05-18T01:19:54.530Z,100
2019-05-18T01:21:08.724Z,100
2019-05-18T01:22:22.995Z,100
2019-05-18T01:23:37.157Z,100
2019-05-18T01:24:51.369Z,100
2019-05-18T01:26:05.556Z,100
2019-05-18T01:27:19.769Z,100
2019-05-18T01:28:33.974Z,100
2019-05-18T01:29:48.181Z,100
2019-05-18T01:31:02.523Z,100
2019-05-18T01:32:16.691Z,100
2019-05-18T01:33:30.822Z,100
2019-05-18T01:34:45.020Z,100
2019-05-18T01:35:59.217Z,100
2019-05-18T01:37:13.549Z,100
2019-05-18T01:38:27.638Z,100
2019-05-18T01:39:41.839Z,100
2019-05-18T01:40:56.039Z,100
2019-05-18T01:42:10.245Z,100
2019-05-18T01:43:24.537Z,100
2019-05-18T01:44:38.873Z,100
2019-05-18T01:45:52.975Z,100
2019-05-18T01:47:07.094Z,100
2019-05-18T01:48:21.301Z,100
2019-05-18T01:49:35.520Z,100
2019-05-18T01:50:49.743Z,100
2019-05-18T01:52:03.987Z,100
2019-05-18T01:53:18.159Z,100
2019-05-18T01:54:32.398Z,100
2019-05-18T01:55:46.684Z,100
2019-05-18T01:57:00.916Z,100
2019-05-18T01:58:15.003Z,100
2019-05-18T01:59:29.206Z,100
2019-05-18T02:00:43.413Z,100
2019-05-18T02:01:57.677Z,100
2019-05-18T02:03:11.851Z,100
2019-05-18T02:04:26.049Z,100
2019-05-18T02:05:40.278Z,100
2019-05-18T02:06:54.455Z,100
2019-05-18T02:08:08.761Z,100
2019-05-18T02:09:22.894Z,100
2019-05-18T02:10:37.088Z,100
2019-05-18T02:11:51.477Z,100
2019-05-18T02:13:05.647Z,100
2019-05-18T02:14:19.713Z,100
2019-05-18T02:15:33.929Z,100
2019-05-18T02:16:48.142Z,100
2019-05-18T02:18:02.350Z,100
2019-05-18T02:19:16.655Z,100
2019-05-18T02:20:30.882Z,100
2019-05-18T02:21:45.126Z,100
2019-05-18T02:22:59.213Z,100
2019-05-18T02:24:13.423Z,100
2019-05-18T02:25:30.908Z,100
2019-05-18T02:26:41.853Z,100
2019-05-18T02:27:56.140Z,100
2019-05-18T02:29:10.275Z,100
2019-05-18T02:30:24.526Z,100
2019-05-18T02:31:38.713Z,100
2019-05-18T02:32:52.922Z,100
2019-05-18T02:34:07.276Z,100
2019-05-18T02:35:21.342Z,100
2019-05-18T02:36:35.569Z,100
2019-05-18T02:37:49.781Z,100
2019-05-18T02:39:03.988Z,100
2019-05-18T02:40:18.193Z,100
2019-05-18T02:41:32.520Z,100
2019-05-18T02:42:46.625Z,100
2019-05-18T02:44:00.879Z,100
2019-05-18T02:45:15.141Z,100
2019-05-18T02:46:29.247Z,100
2019-05-18T02:47:43.517Z,100
2019-05-18T02:48:57.677Z,100
2019-05-18T02:50:11.885Z,100
2019-05-18T02:51:26.099Z,100
2019-05-18T02:52:40.331Z,100
2019-05-18T02:53:54.509Z,100
2019-05-18T02:55:08.774Z,100
2019-05-18T02:56:22.932Z,100
2019-05-18T02:57:37.240Z,100
2019-05-18T02:58:51.545Z,100
2019-05-18T03:00:05.566Z,100
2019-05-18T03:01:19.766Z,100
2019-05-18T03:02:33.986Z,100
2019-05-18T03:03:48.381Z,100
2019-05-18T03:05:02.406Z,100
2019-05-18T03:06:16.771Z,100
2019-05-18T03:07:30.838Z,100
2019-05-18T03:08:45.062Z,100
2019-05-18T03:09:59.357Z,100
2019-05-18T03:11:13.504Z,100
2019-05-18T03:12:27.693Z,100
2019-05-18T03:13:42.002Z,100
2019-05-18T03:14:56.288Z,100
2019-05-18T03:16:10.327Z,100
2019-05-18T03:17:24.537Z,100
2019-05-18T03:18:38.787Z,100
2019-05-18T03:19:53.107Z,100
2019-05-18T03:21:07.173Z,100
2019-05-18T03:22:21.582Z,100
2019-05-18T03:23:35.606Z,100
2019-05-18T03:24:49.809Z,100
2019-05-18T03:26:04.016Z,100
2019-05-18T03:27:18.226Z,100
2019-05-18T03:28:32.535Z,100
2019-05-18T03:29:46.642Z,100
2019-05-18T03:31:00.860Z,100
2019-05-18T03:32:15.049Z,100
2019-05-18T03:33:29.256Z,100
2019-05-18T03:34:43.595Z,100
2019-05-18T03:35:57.688Z,100
2019-05-18T03:37:11.899Z,100
2019-05-18T03:38:26.105Z,100
2019-05-18T03:39:40.309Z,100
2019-05-18T03:40:54.527Z,100
2019-05-18T03:42:08.842Z,100
2019-05-18T03:43:22.997Z,100
2019-05-18T03:44:37.261Z,100
2019-05-18T03:45:51.341Z,100
2019-05-18T03:47:05.644Z,100
2019-05-18T03:48:19.782Z,100
2019-05-18T03:49:33.974Z,100
2019-05-18T03:50:48.299Z,100
2019-05-18T03:52:02.484Z,100
2019-05-18T03:53:16.605Z,100
2019-05-18T03:54:30.816Z,100
2019-05-18T03:55:45.025Z,100
2019-05-18T03:56:59.239Z,100
2019-05-18T03:58:13.433Z,100
2019-05-18T03:59:27.756Z,100
2019-05-18T04:00:41.845Z,100
2019-05-18T04:01:56.038Z,100
2019-05-18T04:03:10.249Z,100
2019-05-18T04:04:24.450Z,100
2019-05-18T04:05:38.680Z,100
2019-05-18T04:06:52.907Z,100
2019-05-18T04:08:07.066Z,100
2019-05-18T04:09:21.288Z,100
2019-05-18T04:10:35.540Z,100
2019-05-18T04:11:49.893Z,100
2019-05-18T04:13:03.901Z,100
2019-05-18T04:14:18.072Z,100
2019-05-18T04:15:32.269Z,100
2019-05-18T04:16:46.481Z,100
2019-05-18T04:18:00.774Z,100
2019-05-18T04:19:14.875Z,100
2019-05-18T04:20:29.185Z,100
2019-05-18T04:21:43.286Z,100
2019-05-18T04:22:57.477Z,100
2019-05-18T04:24:11.787Z,100
2019-05-18T04:25:25.891Z,100
2019-05-18T04:26:40.112Z,100
2019-05-18T04:27:54.348Z,100
2019-05-18T04:29:08.507Z,100
2019-05-18T04:30:22.750Z,100
2019-05-18T04:31:36.918Z,100
2019-05-18T04:32:51.122Z,100
2019-05-18T04:34:05.325Z,100
2019-05-18T04:35:19.545Z,100
2019-05-18T04:36:33.829Z,100
2019-05-18T04:37:47.941Z,100
2019-05-18T04:39:02.149Z,100
2019-05-18T04:40:16.487Z,100
2019-05-18T04:41:30.598Z,100
2019-05-18T04:42:44.752Z,99.9
2019-05-18T04:43:58.967Z,98.8
2019-05-18T04:45:13.122Z,98.4
2019-05-18T04:46:27.335Z,97.6
2019-05-18T04:47:41.599Z,96.7
2019-05-18T04:48:55.797Z,96.2
2019-05-18T04:50:09.907Z,96.2
2019-05-18T04:51:24.069Z,96
2019-05-18T04:52:38.326Z,95.1
2019-05-18T04:53:52.455Z,94.9
2019-05-18T04:55:06.981Z,94.8
2019-05-18T04:56:20.773Z,93.4
2019-05-18T04:57:34.951Z,92.7
2019-05-18T04:58:49.137Z,93.1
2019-05-18T05:00:03.343Z,92.6
2019-05-18T05:01:17.599Z,92
2019-05-18T05:02:31.674Z,91.6
2019-05-18T05:03:45.869Z,91
2019-05-18T05:05:00.154Z,91.6
2019-05-18T05:06:14.216Z,90.2
2019-05-18T05:07:28.411Z,90.3
2019-05-18T05:08:42.580Z,88.7
2019-05-18T05:09:56.752Z,89
2019-05-18T05:11:10.937Z,84.6
2019-05-18T05:12:25.207Z,86
2019-05-18T05:13:39.328Z,85.4
2019-05-18T05:14:53.453Z,85.8
2019-05-18T05:16:07.605Z,85.3
2019-05-18T05:17:21.843Z,85.2
2019-05-18T05:19:50.168Z,84.7
2019-05-18T05:21:04.227Z,85.3
2019-05-18T05:22:18.399Z,82.4
2019-05-18T05:23:32.545Z,84.1
2019-05-18T05:24:46.824Z,83.2
2019-05-18T05:26:00.956Z,83.1
2019-05-18T05:27:15.058Z,83.1
2019-05-18T05:28:29.315Z,84
2019-05-18T05:29:43.383Z,84
2019-05-18T05:30:57.533Z,82.3
2019-05-18T05:32:12.475Z,81.4
2019-05-18T05:33:25.932Z,79.3
2019-05-18T05:34:40.089Z,80.3
2019-05-18T05:35:54.271Z,80.6
2019-05-18T05:37:08.350Z,80.7
2019-05-18T05:38:22.649Z,79.2
2019-05-18T05:39:36.659Z,77.8
2019-05-18T05:40:50.823Z,77
2019-05-18T05:42:04.986Z,76.8
2019-05-18T05:44:33.305Z,77
2019-05-18T05:45:47.557Z,76.7
2019-05-18T05:47:01.705Z,74.1
2019-05-18T05:48:15.768Z,75.5
2019-05-18T05:49:30.002Z,73.4
2019-05-18T05:50:44.166Z,74.5
2019-05-18T05:51:58.220Z,74.6
2019-05-18T05:53:12.371Z,73.7
2019-05-18T05:54:26.539Z,72.6
2019-05-18T05:56:54.913Z,74.7
2019-05-18T05:58:08.943Z,72.5
2019-05-18T05:59:23.075Z,73.5
2019-05-18T06:00:37.214Z,72.3
2019-05-18T06:01:51.455Z,72.8
2019-05-18T06:03:05.582Z,72
2019-05-18T06:04:21.106Z,71.5
2019-05-18T06:05:34.178Z,71.7
2019-05-18T06:06:47.902Z,70.2
2019-05-18T06:09:16.273Z,69.8
2019-05-18T06:10:30.313Z,71.6
2019-05-18T06:11:44.559Z,70
2019-05-18T06:12:58.571Z,68.6
2019-05-18T06:14:12.690Z,67.9
2019-05-18T06:15:27.409Z,67
2019-05-18T06:16:40.968Z,66.7
2019-05-18T06:17:55.096Z,65.8
2019-05-18T06:19:09.229Z,65.2
2019-05-18T06:20:23.375Z,67.4
2019-05-18T06:21:37.709Z,68.4
2019-05-18T06:22:51.674Z,68.4
2019-05-18T06:24:05.740Z,68.4
2019-05-18T06:25:19.978Z,67
2019-05-18T06:26:33.954Z,66.4
2019-05-18T06:27:48.165Z,67.5
2019-05-18T06:29:02.190Z,67.3
2019-05-18T06:30:16.343Z,67.8
2019-05-18T06:31:33.928Z,67.8
2019-05-18T06:32:44.544Z,66.9
2019-05-18T06:33:58.749Z,65.3
2019-05-18T06:35:12.775Z,63.1
2019-05-18T06:36:26.879Z,64
2019-05-18T06:37:41.040Z,62.2
2019-05-18T06:38:56.269Z,66.2
2019-05-18T06:40:09.282Z,61.7
2019-05-18T06:41:23.400Z,62.5
2019-05-18T06:42:37.520Z,64
2019-05-18T06:43:51.592Z,64.6
2019-05-18T06:46:19.745Z,62.7
2019-05-18T06:47:33.851Z,61.8
2019-05-18T06:48:48.171Z,61.3
2019-05-18T06:50:02.072Z,61.3
2019-05-18T06:51:16.171Z,62.7
2019-05-18T06:52:30.381Z,61.4
2019-05-18T06:53:44.359Z,61.2
2019-05-18T06:55:03.322Z,61.6
2019-05-18T06:56:12.648Z,61.2
2019-05-18T06:58:40.742Z,61.5
2019-05-18T06:59:54.841Z,59.2
2019-05-18T07:01:08.924Z,61.4
2019-05-18T07:02:23.041Z,60.4
2019-05-18T07:03:37.124Z,62.3
2019-05-18T07:04:51.315Z,61.7
2019-05-18T07:06:05.313Z,61.1
2019-05-18T07:07:19.403Z,62
2019-05-18T07:08:33.520Z,61.8
2019-05-18T07:11:01.855Z,62.6
2019-05-18T07:12:15.764Z,62
2019-05-18T07:13:29.915Z,61.8
2019-05-18T07:14:43.964Z,59.7
2019-05-18T07:15:58.057Z,57.7
2019-05-18T07:17:12.245Z,56.3
2019-05-18T07:18:26.418Z,57.1
2019-05-18T07:19:40.383Z,57.4
2019-05-18T07:20:54.474Z,55.8
2019-05-18T07:22:08.579Z,54
2019-05-18T07:23:22.669Z,52.7
2019-05-18T07:24:36.741Z,54.1
2019-05-18T07:25:51.732Z,53
2019-05-18T07:27:04.917Z,52
2019-05-18T07:28:18.873Z,53.8
2019-05-18T07:29:32.953Z,54.6
2019-05-18T07:30:47.165Z,54.3
2019-05-18T07:32:01.083Z,53.7
2019-05-18T07:33:15.151Z,53
2019-05-18T07:34:29.207Z,54.8
2019-05-18T07:35:43.359Z,52.9
2019-05-18T07:36:57.335Z,51.6
2019-05-18T07:38:11.406Z,52.2
2019-05-18T07:39:25.469Z,51.2
2019-05-18T07:40:39.520Z,50.9
2019-05-18T07:41:53.591Z,51.8
2019-05-18T07:43:07.677Z,53.3
2019-05-18T07:44:21.721Z,53.9
2019-05-18T07:45:35.783Z,53.9
2019-05-18T07:50:32.119Z,52.3
2019-05-18T07:51:46.123Z,53.1
2019-05-18T07:53:00.164Z,53.2
2019-05-18T07:54:14.338Z,52.9
2019-05-18T07:55:28.760Z,51
2019-05-18T07:56:42.375Z,51.1
2019-05-18T07:57:56.447Z,48.1
2019-05-18T08:00:24.619Z,50.6
2019-05-18T08:01:38.633Z,47.3
2019-05-18T08:02:52.826Z,49.6
2019-05-18T08:04:06.765Z,49.7
2019-05-18T08:05:20.803Z,50.5
2019-05-18T08:06:34.857Z,48.6
2019-05-18T08:07:48.915Z,48.8
2019-05-18T08:09:02.965Z,51
2019-05-18T08:10:17.172Z,53.3
2019-05-18T08:11:31.151Z,51.4
2019-05-18T08:12:45.206Z,49.3
2019-05-18T08:13:59.175Z,48.8
2019-05-18T08:15:13.287Z,48.9
2019-05-18T08:16:27.309Z,49.7
2019-05-18T08:17:41.352Z,49.1
2019-05-18T08:18:55.509Z,49.6
2019-05-18T08:20:09.460Z,47.2
2019-05-18T08:21:23.505Z,50.6
2019-05-18T08:22:37.639Z,47.5
2019-05-18T08:23:51.720Z,47.4
2019-05-18T08:25:11.666Z,49.5
2019-05-18T08:26:19.685Z,49
2019-05-18T08:27:33.750Z,46.8
2019-05-18T08:28:47.794Z,49
2019-05-18T08:30:01.811Z,50.9
2019-05-18T08:31:15.869Z,52.4
2019-05-18T08:32:29.997Z,53.8
2019-05-18T08:33:43.947Z,52.6
2019-05-18T08:34:58.058Z,53.5
2019-05-18T08:37:26.200Z,52.6
2019-05-18T08:38:40.178Z,50.8
2019-05-18T08:39:54.298Z,50.8
2019-05-18T08:41:08.272Z,49.8
2019-05-18T08:42:22.318Z,48.6
2019-05-18T08:43:36.582Z,46.8
2019-05-18T08:44:50.525Z,48.9
2019-05-18T08:46:04.471Z,44.3
2019-05-18T08:48:32.651Z,44.5
2019-05-18T08:49:46.600Z,45.1
2019-05-18T08:52:14.843Z,46.7
2019-05-18T08:53:28.797Z,47.4
2019-05-18T08:54:42.752Z,45.2
2019-05-18T08:55:56.895Z,44.3
2019-05-18T08:57:10.827Z,44.9
2019-05-18T08:58:24.892Z,45.6
2019-05-18T08:59:38.901Z,44.1
2019-05-18T09:00:53.043Z,43.7
2019-05-18T09:03:21.055Z,44.7
2019-05-18T09:04:35.002Z,43.7
2019-05-18T09:05:49.038Z,43.4
2019-05-18T09:07:03.143Z,43
2019-05-18T09:08:17.318Z,44.9
2019-05-18T09:10:45.170Z,44.5
2019-05-18T09:11:59.214Z,44.3
2019-05-18T09:13:13.319Z,44.4
2019-05-18T09:14:27.361Z,42.7
2019-05-18T09:16:55.606Z,45.7
2019-05-18T09:18:09.387Z,44.4
2019-05-18T09:19:23.415Z,43.7
2019-05-18T09:20:37.526Z,43.1
2019-05-18T09:21:51.539Z,42.3
2019-05-18T09:23:05.597Z,43.8
2019-05-18T09:24:19.641Z,44.1
2019-05-18T09:25:33.567Z,44.2
2019-05-18T09:26:47.615Z,43.1
2019-05-18T09:28:01.646Z,46.5
2019-05-18T09:29:15.759Z,45.8
2019-05-18T09:30:29.682Z,47
2019-05-18T09:31:43.714Z,46.9
2019-05-18T09:32:57.739Z,44.7
2019-05-18T09:34:11.758Z,42.6
2019-05-18T09:35:25.874Z,43.1
2019-05-18T09:36:39.805Z,43.7
2019-05-18T09:37:53.826Z,41.5
2019-05-18T09:39:07.981Z,40
2019-05-18T09:40:21.887Z,40.2
2019-05-18T09:41:35.975Z,43
2019-05-18T09:42:49.909Z,41.9
2019-05-18T09:44:04.018Z,41.1
2019-05-18T09:45:18.042Z,43.6
2019-05-18T09:46:32.073Z,41.2
2019-05-18T09:47:45.993Z,44.2
2019-05-18T09:49:00.052Z,44.9
2019-05-18T09:50:14.131Z,44.2
2019-05-18T09:51:31.351Z,44.9
2019-05-18T09:52:42.100Z,43.2
2019-05-18T09:53:56.206Z,44.4
2019-05-18T09:55:10.232Z,44.3
2019-05-18T09:56:24.168Z,44.9
2019-05-18T09:57:38.196Z,44.4
2019-05-18T09:58:52.210Z,43.6
2019-05-18T10:00:06.265Z,42.9
2019-05-18T10:02:34.243Z,39.8
2019-05-18T10:03:48.250Z,43.1
2019-05-18T10:05:02.262Z,43.1
2019-05-18T10:06:16.363Z,45.3
2019-05-18T10:07:30.285Z,47.9
2019-05-18T10:09:58.307Z,45.4
2019-05-18T10:12:26.343Z,43.3
2019-05-18T10:13:40.371Z,41.5
2019-05-18T10:14:54.494Z,41.4
2019-05-18T10:18:36.463Z,42.4
2019-05-18T10:19:50.420Z,43.1
2019-05-18T10:21:04.478Z,40.3
2019-05-18T10:22:18.426Z,39.5
2019-05-18T10:23:32.508Z,43.2
2019-05-18T10:24:46.434Z,43.8
2019-05-18T10:26:00.436Z,42.1
2019-05-18T10:27:14.426Z,41.2
2019-05-18T10:28:28.417Z,44.4
2019-05-18T10:29:42.504Z,40.3
2019-05-18T10:30:56.523Z,40.3
2019-05-18T10:32:10.411Z,38.6
2019-05-18T10:33:24.406Z,40.1
2019-05-18T10:34:38.431Z,40.9
2019-05-18T10:35:52.471Z,44.2
2019-05-18T10:38:20.627Z,45.4
2019-05-18T10:39:34.732Z,45.2
2019-05-18T10:40:48.742Z,48
2019-05-18T10:42:02.715Z,48.6
2019-05-18T10:43:16.793Z,49
2019-05-18T10:44:30.843Z,45.9
2019-05-18T10:45:44.922Z,47.2
2019-05-18T10:46:58.982Z,47.3
2019-05-18T10:48:13.094Z,44.7
2019-05-18T10:49:27.117Z,45.6
2019-05-18T10:50:41.274Z,45.9
2019-05-18T10:51:55.281Z,45.5
2019-05-18T10:53:09.330Z,45.4
2019-05-18T10:54:23.578Z,47.5
2019-05-18T10:55:37.483Z,45.1
2019-05-18T10:56:51.768Z,46
2019-05-18T10:58:05.617Z,45.5
2019-05-18T10:59:19.668Z,47.1
2019-05-18T11:00:33.746Z,48.3
2019-05-18T11:01:47.803Z,47.7
2019-05-18T11:03:01.876Z,47.9
2019-05-18T11:04:15.939Z,47.7
2019-05-18T11:05:29.991Z,48.2
2019-05-18T11:06:44.067Z,47.1
2019-05-18T11:09:12.222Z,44.9
2019-05-18T11:10:26.251Z,45.8
2019-05-18T11:11:40.337Z,46.1
2019-05-18T11:12:54.360Z,44.7
2019-05-18T11:15:22.428Z,40.1
2019-05-18T11:16:36.597Z,39.1
2019-05-18T11:17:50.431Z,38.3
2019-05-18T11:19:04.415Z,40
2019-05-18T11:20:18.465Z,37.8
2019-05-18T11:21:32.417Z,37.2
2019-05-18T11:22:46.427Z,35.8
2019-05-18T11:24:05.897Z,34.2
2019-05-18T11:25:14.494Z,32.6
2019-05-18T11:26:28.397Z,35.2
2019-05-18T11:27:42.379Z,33.5
2019-05-18T11:28:56.441Z,34.3
2019-05-18T11:30:10.391Z,36.5
2019-05-18T11:31:24.345Z,37.5
2019-05-18T11:32:38.329Z,34.7
2019-05-18T11:33:52.351Z,33.7
2019-05-18T11:35:06.356Z,34.2
2019-05-18T11:36:20.296Z,34.1
2019-05-18T11:37:34.327Z,35.2
2019-05-18T11:38:48.297Z,34.7
2019-05-18T11:40:02.267Z,36.9
2019-05-18T11:41:16.257Z,39.2
2019-05-18T11:42:31.038Z,39.2
2019-05-18T11:43:44.256Z,39.1
2019-05-18T11:44:58.263Z,41.9
2019-05-18T11:46:12.257Z,39
2019-05-18T11:47:26.309Z,40
2019-05-18T11:48:40.270Z,39.2
2019-05-18T11:49:54.430Z,37.4
2019-05-18T11:51:08.281Z,38.1
2019-05-18T11:52:22.313Z,41.1
2019-05-18T11:53:36.333Z,43.8
2019-05-18T11:54:50.367Z,43.8
2019-05-18T11:56:04.424Z,43.2
2019-05-18T11:57:18.455Z,44.2
2019-05-18T11:58:36.845Z,42.9
2019-05-18T12:01:00.565Z,38.8
2019-05-18T12:02:14.689Z,43.2
2019-05-18T12:03:28.736Z,44.8
2019-05-18T12:04:42.699Z,47.3
2019-05-18T12:05:56.760Z,46.4
2019-05-18T12:07:10.839Z,47.3
2019-05-18T12:08:24.896Z,49.5
2019-05-18T12:09:38.970Z,48.1
2019-05-18T12:10:53.072Z,47.8
2019-05-18T12:12:07.137Z,47.3
2019-05-18T12:13:21.308Z,47.8
2019-05-18T12:14:35.387Z,47.8
2019-05-18T12:15:49.488Z,47.3
2019-05-18T12:17:03.492Z,43.8
2019-05-18T12:19:31.726Z,43.4
2019-05-18T12:21:59.972Z,45.9
2019-05-18T12:23:13.908Z,45.3
2019-05-18T12:24:27.978Z,45.9
2019-05-18T12:25:42.069Z,47.2
2019-05-18T12:26:56.187Z,45.3
2019-05-18T12:28:10.250Z,45.8
2019-05-18T12:29:24.544Z,45.9
2019-05-18T12:30:38.668Z,44.5
2019-05-18T12:31:52.561Z,45.7
2019-05-18T12:33:06.689Z,41.3
2019-05-18T12:34:20.660Z,40.2
2019-05-18T12:35:34.727Z,42.4
2019-05-18T12:36:48.912Z,41.2
2019-05-18T12:38:02.909Z,43
2019-05-18T12:39:16.967Z,42.4
2019-05-18T12:40:31.038Z,45.8
2019-05-18T12:41:45.213Z,44.6
2019-05-18T12:42:59.198Z,42.8
2019-05-18T12:44:13.271Z,37.4
2019-05-18T12:45:27.324Z,36.4
2019-05-18T12:46:41.438Z,37.8
2019-05-18T12:47:55.520Z,37.2
2019-05-18T12:49:09.512Z,36.8
2019-05-18T12:50:23.558Z,35.5
2019-05-18T12:51:37.621Z,34.6
2019-05-18T12:52:51.822Z,32.7
2019-05-18T12:54:05.695Z,32.8
2019-05-18T12:55:19.697Z,31.8
2019-05-18T12:56:33.785Z,33.5
2019-05-18T12:57:47.743Z,33
2019-05-18T12:59:01.755Z,30.9
2019-05-18T13:00:15.791Z,33.3
2019-05-18T13:01:29.796Z,31.9
2019-05-18T13:02:43.806Z,33.1
2019-05-18T13:03:57.949Z,34.5
2019-05-18T13:05:11.938Z,34.2
2019-05-18T13:06:25.847Z,34.3
2019-05-18T13:07:39.877Z,31.7
2019-05-18T13:08:53.887Z,32
2019-05-18T13:10:07.898Z,32.9
2019-05-18T13:11:21.917Z,33
2019-05-18T13:12:35.923Z,31.7
2019-05-18T13:13:50.043Z,32.8
2019-05-18T13:15:03.962Z,32.5
2019-05-18T13:16:17.982Z,33.2
2019-05-18T13:17:31.985Z,34.3
2019-05-18T13:22:28.088Z,34
2019-05-18T13:23:42.145Z,31.7
2019-05-18T13:24:56.654Z,32.1
2019-05-18T13:26:10.154Z,32.9
2019-05-18T13:27:24.268Z,34.7
2019-05-18T13:28:38.412Z,30.2
2019-05-18T13:29:52.314Z,31.3
2019-05-18T13:31:06.267Z,35.2
2019-05-18T13:32:20.281Z,35.2
2019-05-18T13:33:34.321Z,35.1
2019-05-18T13:34:48.453Z,37.7
2019-05-18T13:36:02.403Z,34.7
2019-05-18T13:37:16.432Z,34.4
2019-05-18T13:38:30.469Z,36.8
2019-05-18T13:39:44.510Z,34.3
2019-05-18T13:40:58.557Z,35.6
2019-05-18T13:42:12.590Z,36.5
2019-05-18T13:43:26.733Z,37.1
2019-05-18T13:44:40.695Z,41
2019-05-18T13:45:54.766Z,37.4
2019-05-18T13:47:08.797Z,37.1
2019-05-18T13:48:22.965Z,37.4
2019-05-18T13:49:37.001Z,38.8
2019-05-18T13:50:51.009Z,37.6
2019-05-18T13:52:05.031Z,37.8
2019-05-18T13:53:19.101Z,37.7
2019-05-18T13:54:33.175Z,34.9
2019-05-18T13:55:47.220Z,35.9
2019-05-18T13:57:01.285Z,40.4
2019-05-18T13:58:15.352Z,37.4
2019-05-18T13:59:29.445Z,35.9
2019-05-18T14:00:43.449Z,35.1
2019-05-18T14:01:57.511Z,35.5
2019-05-18T14:03:11.577Z,35.5
2019-05-18T14:04:25.630Z,34.7
2019-05-18T14:06:53.817Z,31.6
2019-05-18T14:08:07.832Z,30.5
2019-05-18T14:09:21.867Z,30.2
2019-05-18T14:10:35.916Z,30.4
2019-05-18T14:11:51.134Z,31.2
2019-05-18T14:13:04.034Z,32.3
2019-05-18T14:14:17.974Z,33.3
2019-05-18T14:15:32.013Z,34.5
2019-05-18T14:16:46.059Z,33.6
2019-05-18T14:18:00.124Z,32.3
2019-05-18T14:19:14.102Z,33
2019-05-18T14:20:28.217Z,33.5
2019-05-18T14:21:42.181Z,35
2019-05-18T14:22:56.219Z,36.5
2019-05-18T14:24:10.297Z,40.3
2019-05-18T14:25:24.303Z,39.3
2019-05-18T14:26:38.339Z,35.8
2019-05-18T14:27:52.470Z,33.4
2019-05-18T14:29:06.733Z,33
2019-05-18T14:30:20.473Z,32
2019-05-18T14:31:34.620Z,30.8
2019-05-18T14:32:50.446Z,32.7
2019-05-18T14:34:03.489Z,33.1
2019-05-18T14:35:16.701Z,30.9
2019-05-18T14:36:30.670Z,31
2019-05-18T14:37:44.663Z,31.1
2019-05-18T14:38:58.755Z,31.4
2019-05-18T14:40:12.792Z,32.9
2019-05-18T14:41:26.752Z,29.6
2019-05-18T14:42:40.849Z,30.4
2019-05-18T14:43:54.787Z,30.2
2019-05-18T14:45:08.829Z,32.2
2019-05-18T14:46:22.888Z,32.3
2019-05-18T14:47:36.877Z,32.4
2019-05-18T14:50:05.066Z,33.5
2019-05-18T14:51:18.990Z,33.4
2019-05-18T14:52:36.238Z,32.2
2019-05-18T14:53:47.144Z,32.9
2019-05-18T14:55:01.118Z,33.4
2019-05-18T14:56:16.804Z,33.5
2019-05-18T14:57:29.186Z,34.1
2019-05-18T14:59:57.241Z,34.9
2019-05-18T15:02:25.395Z,33.4
2019-05-18T15:03:39.343Z,32.3
2019-05-18T15:06:07.413Z,32.5
2019-05-18T15:07:21.676Z,32.8
2019-05-18T15:08:35.476Z,31.2
2019-05-18T15:09:51.612Z,31.5
2019-05-18T15:11:07.477Z,33.4
2019-05-18T15:12:21.325Z,33.4
2019-05-18T15:13:31.626Z,32.7
2019-05-18T15:14:45.678Z,34.4
2019-05-18T15:15:59.708Z,34.2
2019-05-18T15:17:13.751Z,32.7
2019-05-18T15:18:27.876Z,33
2019-05-18T15:19:41.936Z,33.3
2019-05-18T15:20:55.866Z,33.6
2019-05-18T15:22:09.910Z,33
2019-05-18T15:23:23.944Z,34.4
2019-05-18T15:24:38.004Z,32.5
2019-05-18T15:27:06.136Z,31.1
2019-05-18T15:28:20.097Z,32.5
2019-05-18T15:29:34.125Z,31.8
2019-05-18T15:30:50.741Z,29.7
2019-05-18T15:32:03.995Z,30
2019-05-18T15:34:30.285Z,30.6
2019-05-18T15:35:44.327Z,29.9
2019-05-18T15:36:58.438Z,31.7
2019-05-18T15:38:12.444Z,29.9
2019-05-18T15:39:26.435Z,29.1
2019-05-18T15:40:40.462Z,29.6
2019-05-18T15:41:54.517Z,28.6
2019-05-18T15:43:08.547Z,28.8
2019-05-18T15:44:22.610Z,29.7
2019-05-18T15:45:36.712Z,30.5
2019-05-18T15:46:50.676Z,30.1
2019-05-18T15:48:04.687Z,31.9
2019-05-18T15:49:18.744Z,34.4
2019-05-18T15:50:34.060Z,30.8
2019-05-18T15:51:46.787Z,31.8
2019-05-18T15:53:00.828Z,32.6
2019-05-18T15:54:14.855Z,32.6
2019-05-18T15:55:31.319Z,32.8
2019-05-18T15:56:42.932Z,33.1
2019-05-18T15:57:56.972Z,36.2
2019-05-18T15:59:11.026Z,35.5
2019-05-18T16:00:25.088Z,35.5
2019-05-18T16:01:39.129Z,37.2
2019-05-18T16:02:53.160Z,37.5
2019-05-18T16:04:07.221Z,36.9
2019-05-18T16:05:21.333Z,35.6
2019-05-18T16:06:35.349Z,35.5
2019-05-18T16:07:49.427Z,35.7
2019-05-18T16:09:03.474Z,36.8
2019-05-18T16:10:17.531Z,35.4
2019-05-18T16:11:31.733Z,37.6
2019-05-18T16:12:45.667Z,38.8
2019-05-18T16:13:59.746Z,37.4
2019-05-18T16:15:13.824Z,39.1
2019-05-18T16:16:27.974Z,40.5
2019-05-18T16:17:42.002Z,37.6
2019-05-18T16:18:56.159Z,38
2019-05-18T16:20:10.238Z,38.4
2019-05-18T16:21:24.241Z,38.3
2019-05-18T16:22:38.330Z,38.6
2019-05-18T16:23:52.447Z,38.5
2019-05-18T16:25:06.858Z,40.2
2019-05-18T16:26:20.598Z,37.5
2019-05-18T16:27:34.659Z,36.9
2019-05-18T16:28:48.729Z,36.1
2019-05-18T16:30:06.364Z,37
2019-05-18T16:31:16.953Z,35.2
2019-05-18T16:32:30.945Z,36.1
2019-05-18T16:33:45.021Z,35.2
2019-05-18T16:34:59.224Z,33.9
2019-05-18T16:36:13.134Z,35.2
2019-05-18T16:37:27.194Z,35.4
2019-05-18T16:38:41.265Z,36.5
2019-05-18T16:39:55.339Z,37.6
2019-05-18T16:41:09.508Z,38.4
2019-05-18T16:42:23.484Z,38.4
2019-05-18T16:43:37.610Z,39.6
2019-05-18T16:44:51.692Z,39.4
2019-05-18T16:46:05.787Z,39.6
2019-05-18T16:47:19.792Z,40
2019-05-18T16:48:33.870Z,39.7
2019-05-18T16:49:47.965Z,41.9
2019-05-18T16:51:02.033Z,40.4
2019-05-18T16:52:16.132Z,40.9
2019-05-18T16:53:30.251Z,40.5
2019-05-18T16:54:47.609Z,40.5
2019-05-18T16:55:58.542Z,43.5
2019-05-18T16:57:12.489Z,45.2
2019-05-18T16:58:26.583Z,44.7
2019-05-18T17:00:54.864Z,43.8
2019-05-18T17:02:08.921Z,42.8
2019-05-18T17:03:23.121Z,43.3
2019-05-18T17:04:37.068Z,43.3
2019-05-18T17:05:51.194Z,44.6
2019-05-18T17:07:05.286Z,43.9
2019-05-18T17:08:19.498Z,50.5
2019-05-18T17:09:33.593Z,45.8
2019-05-18T17:10:47.600Z,45.8
2019-05-18T17:12:01.710Z,46
2019-05-18T17:13:15.878Z,45.2
2019-05-18T17:14:29.929Z,45.1
2019-05-18T17:15:44.152Z,45.9
2019-05-18T17:16:58.158Z,47.4
2019-05-18T17:18:12.419Z,48.4
2019-05-18T17:19:26.437Z,47.7
2019-05-18T17:20:40.527Z,48.3
2019-05-18T17:21:54.726Z,48.7
2019-05-18T17:23:08.722Z,48.3
2019-05-18T17:26:52.010Z,46.2
2019-05-18T17:28:05.405Z,46
2019-05-18T17:29:19.304Z,49.2
2019-05-18T17:30:33.504Z,49.7